Terminal Aerodrome Forecast
Issued by NWS Albany, NY

Home | Current Version | Previous Version | Text Only | Print | Product List | Glossary On
Versions: 1 2 3 4 5 6 7 8 9 10 11 12 13 14 15 16 17 18 19 20 21 22 23 24 25 26 27 28 29 30
850
FTUS41 KALY 251303 AAA
TAFPOU
TAF AMD
KPOU 251303Z 2513/2612 05005KT 4SM -RA BR BKN025 OVC050
      WS020/13035KT
      TEMPO 2513/2515 2SM RA BR BKN015 OVC025
     FM251900 36004KT 4SM BR OVC010
     FM260000 VRB03KT 1 1/2SM BR BKN003=

USA.gov is the U.S. government's official web portal to all federal, state and local government web resources and services.